East Point, Florida
Current Conditions -  °F | °C
As of 10:53 PM on Sunday 23 Nov 2014 (Local Time) from KAAF Reporting Station
Overcast Overcast  
Wind Chill: 68°   Ceiling: 2500
Heat Index: 68°   Visibility: 10mi
Dew Point: 64°   Wind: 7mph
Humidity: 87%   Direction: 130°SE
Pressure: 29.85"   Gusts: NA
Location:  29.8852°N, 84.8748°W
Report Text: KAAF 240353Z AUTO 13006KT 10SM OVC025 20/18 A2985 RMK AO2 SLP107 T02000178 TSNO
Loading
Personal Weather Stations






























Interactive Weather Map New forecast layout! Learn more

10-Day Weather Forecast

Advertisements
Track Severe Weather on mobile